Time;durP1;ratioP1;P1;durP2;ratioP2;P2;SDS_P1;SDS_P2;PMS_P1;PMS_P2;Temp;Humidity;BMP_temperature;BMP_pressure;BME280_temperature;BME280_humidity;BME280_pressure;Samples;Min_cycle;Max_cycle;Signal;HPM_P1;HPM_P2
2023/07/16 00:01:58;;;;;;;10.97;6.63;;;21.50;35.50;;;;;;5081319;28;46357;-83
2023/07/16 00:04:24;;;;;;;11.60;7.23;;;21.60;35.60;;;;;;5081429;28;46389;-84
2023/07/16 00:06:49;;;;;;;14.47;7.43;;;21.60;35.50;;;;;;5063486;28;46573;-84
2023/07/16 00:09:15;;;;;;;20.53;7.90;;;21.70;35.60;;;;;;5062009;28;48115;-82
2023/07/16 00:11:41;;;;;;;21.00;8.90;;;21.70;35.60;;;;;;5080636;28;46589;-83
2023/07/16 00:14:06;;;;;;;33.00;8.80;;;21.70;35.60;;;;;;5081160;28;46467;-84
2023/07/16 00:16:32;;;;;;;24.27;8.90;;;21.60;35.50;;;;;;5079857;27;46469;-84
2023/07/16 00:18:57;;;;;;;29.70;8.53;;;21.50;36.40;;;;;;5080106;28;47490;-83
2023/07/16 00:21:24;;;;;;;20.83;7.50;;;21.50;37.00;;;;;;5080670;28;46545;-83
2023/07/16 00:23:49;;;;;;;19.03;7.10;;;21.40;37.90;;;;;;5080882;28;46500;-84
2023/07/16 00:26:15;;;;;;;14.33;7.03;;;21.20;41.60;;;;;;5080133;28;46547;-83
2023/07/16 00:28:41;;;;;;;15.03;6.97;;;21.20;42.60;;;;;;5079618;28;46451;-84
2023/07/16 00:31:07;;;;;;;14.37;6.23;;;21.10;43.60;;;;;;5081495;28;46933;-84
2023/07/16 00:33:32;;;;;;;15.73;6.47;;;21.10;45.50;;;;;;5080709;28;46589;-84
2023/07/16 00:35:58;;;;;;;11.93;6.03;;;21.10;45.70;;;;;;5080802;28;46369;-83
2023/07/16 00:38:23;;;;;;;15.90;7.17;;;21.20;45.90;;;;;;5079819;28;47033;-82
2023/07/16 00:40:50;;;;;;;14.03;6.57;;;21.10;45.40;;;;;;5068497;28;46477;-83
2023/07/16 00:43:16;;;;;;;13.80;6.47;;;21.20;45.90;;;;;;5080290;28;46522;-83
2023/07/16 00:45:44;;;;;;;16.60;6.40;;;21.20;45.60;;;;;;5079055;28;45976;-83
2023/07/16 00:48:11;;;;;;;11.60;6.57;;;21.20;45.70;;;;;;5079970;28;47161;-82
2023/07/16 00:50:39;;;;;;;15.27;6.23;;;21.20;45.80;;;;;;5079654;28;46714;-82
2023/07/16 00:53:06;;;;;;;14.57;6.70;;;21.10;45.40;;;;;;5080692;28;46471;-84
2023/07/16 00:55:32;;;;;;;16.33;6.57;;;21.20;45.10;;;;;;5079944;28;46507;-83
2023/07/16 00:58:05;;;;;;;10.80;6.20;;;21.20;44.80;;;;;;5079996;27;47720;-83
2023/07/16 01:00:32;;;;;;;10.87;6.30;;;21.30;45.10;;;;;;5078358;28;46656;-83
2023/07/16 01:02:57;;;;;;;18.17;6.50;;;21.40;44.70;;;;;;5061569;28;46378;-82
2023/07/16 01:05:27;;;;;;;12.40;6.30;;;21.40;44.50;;;;;;5080581;28;46675;-84
2023/07/16 01:07:58;;;;;;;19.53;6.50;;;21.40;44.20;;;;;;5061904;28;48287;-83
2023/07/16 01:10:25;;;;;;;18.20;6.43;;;21.40;44.10;;;;;;5059812;28;45890;-82
2023/07/16 01:12:53;;;;;;;11.90;6.20;;;21.50;43.90;;;;;;5062649;28;46668;-82
2023/07/16 01:15:19;;;;;;;12.40;6.17;;;21.40;43.70;;;;;;5080535;28;46592;-82
2023/07/16 01:17:45;;;;;;;17.10;6.50;;;21.50;43.30;;;;;;5079585;28;46071;-82
2023/07/16 01:20:11;;;;;;;17.97;6.60;;;21.50;43.10;;;;;;5081356;28;46468;-84
2023/07/16 01:22:48;;;;;;;11.23;6.57;;;21.60;43.00;;;;;;5080809;28;46663;-83
2023/07/16 01:25:26;;;;;;;10.03;6.13;;;21.60;44.20;;;;;;5078844;28;45924;-84
2023/07/16 01:28:06;;;;;;;12.53;6.50;;;21.60;42.70;;;;;;5088932;27;46481;-84
2023/07/16 01:30:32;;;;;;;12.17;6.33;;;21.60;42.70;;;;;;5061307;28;46672;-83
2023/07/16 01:32:58;;;;;;;10.60;6.10;;;21.80;42.70;;;;;;5077433;27;46705;-81
2023/07/16 01:35:25;;;;;;;10.33;5.90;;;21.60;42.80;;;;;;5079026;28;47405;-82
2023/07/16 01:37:51;;;;;;;11.97;6.07;;;21.70;43.90;;;;;;5078567;28;46410;-84
2023/07/16 01:40:16;;;;;;;15.50;5.43;;;21.40;45.50;;;;;;5079698;28;46529;-84
2023/07/16 01:42:42;;;;;;;9.10;5.27;;;21.20;48.80;;;;;;5079289;28;46432;-82
2023/07/16 01:45:07;;;;;;;8.90;4.93;;;21.20;50.60;;;;;;5079452;28;46700;-82
2023/07/16 01:48:06;;;;;;;20.40;6.10;;;21.10;50.30;;;;;;5078273;28;46383;-82
2023/07/16 01:50:32;;;;;;;10.50;5.43;;;21.10;49.60;;;;;;5077932;28;46456;-84
2023/07/16 01:52:57;;;;;;;11.63;5.63;;;21.00;48.60;;;;;;5079400;28;46408;-82
2023/07/16 01:55:23;;;;;;;8.17;6.00;;;21.00;48.60;;;;;;5079412;28;46905;-83
2023/07/16 01:57:49;;;;;;;8.70;4.37;;;21.00;48.60;;;;;;5077361;28;47076;-83
2023/07/16 02:00:14;;;;;;;6.63;4.87;;;20.90;49.30;;;;;;5078497;28;46432;-84
2023/07/16 02:02:40;;;;;;;10.30;5.43;;;21.10;49.60;;;;;;5079078;28;46394;-84
2023/07/16 02:05:05;;;;;;;10.90;5.20;;;21.00;49.40;;;;;;5061487;28;46416;-83
2023/07/16 02:07:31;;;;;;;8.90;5.90;;;20.90;49.10;;;;;;5078238;28;47629;-82
2023/07/16 02:09:57;;;;;;;51.73;6.73;;;20.90;49.00;;;;;;5079161;28;46724;-82
2023/07/16 02:12:22;;;;;;;9.50;5.00;;;20.90;49.10;;;;;;5063180;28;46729;-82
2023/07/16 02:14:48;;;;;;;9.83;5.73;;;20.90;49.10;;;;;;5065460;28;46514;-83
2023/07/16 02:17:13;;;;;;;9.57;5.50;;;21.00;48.90;;;;;;5078487;28;46837;-83
2023/07/16 02:19:39;;;;;;;13.07;5.30;;;21.00;48.60;;;;;;5076318;27;46487;-82
2023/07/16 02:22:05;;;;;;;10.23;5.43;;;21.00;48.60;;;;;;5079485;28;46445;-83
2023/07/16 02:24:30;;;;;;;12.50;5.83;;;21.10;48.60;;;;;;5078915;28;46604;-80
2023/07/16 02:26:56;;;;;;;12.27;6.10;;;21.10;48.70;;;;;;5078843;28;47806;-82
2023/07/16 02:29:21;;;;;;;11.33;5.97;;;21.10;48.70;;;;;;5079176;28;46554;-83
2023/07/16 02:31:48;;;;;;;13.50;5.80;;;21.20;48.80;;;;;;5079125;28;46683;-82
2023/07/16 02:34:14;;;;;;;10.00;5.90;;;21.20;48.80;;;;;;5079569;28;46462;-82
2023/07/16 02:36:39;;;;;;;9.50;5.77;;;21.30;48.80;;;;;;5078805;28;46641;-83
2023/07/16 02:39:05;;;;;;;10.20;5.97;;;21.30;48.80;;;;;;5079560;27;46493;-84
2023/07/16 02:41:30;;;;;;;9.33;5.60;;;21.30;48.80;;;;;;5082023;28;46512;-80
2023/07/16 02:44:00;;;;;;;12.60;6.40;;;21.20;48.80;;;;;;5082831;28;46485;-83
2023/07/16 02:46:26;;;;;;;15.23;6.20;;;21.40;48.90;;;;;;5081522;28;46456;-83
2023/07/16 02:48:52;;;;;;;12.13;6.60;;;21.40;48.90;;;;;;5081664;28;46423;-84
2023/07/16 02:51:17;;;;;;;17.10;6.30;;;21.40;48.90;;;;;;5064204;28;46744;-84
2023/07/16 02:53:43;;;;;;;9.93;6.43;;;21.40;49.00;;;;;;5082658;28;45860;-83
2023/07/16 02:56:08;;;;;;;8.20;5.80;;;21.30;50.90;;;;;;5082357;28;46906;-83
2023/07/16 02:58:34;;;;;;;12.10;5.70;;;21.00;52.20;;;;;;5080868;28;46486;-83
2023/07/16 03:00:59;;;;;;;9.97;6.20;;;20.90;54.10;;;;;;5082408;28;46558;-83
2023/07/16 03:03:25;;;;;;;11.23;5.97;;;20.80;55.60;;;;;;5082045;28;46595;-80
2023/07/16 03:05:50;;;;;;;13.23;6.00;;;20.70;56.90;;;;;;5082406;28;46608;-84
2023/07/16 03:08:16;;;;;;;9.90;5.50;;;20.60;58.30;;;;;;5081631;28;46429;-82
2023/07/16 03:10:41;;;;;;;10.07;5.10;;;20.60;58.60;;;;;;5081686;28;46844;-84
2023/07/16 03:13:07;;;;;;;8.67;4.60;;;20.60;58.30;;;;;;5088518;28;46534;-83
2023/07/16 03:15:32;;;;;;;7.23;4.80;;;20.70;58.00;;;;;;5072289;28;48257;-83
2023/07/16 03:17:58;;;;;;;9.90;4.77;;;20.70;57.50;;;;;;5088568;28;46519;-81
2023/07/16 03:20:24;;;;;;;9.90;5.00;;;20.80;57.20;;;;;;5083308;28;46707;-84
2023/07/16 03:22:49;;;;;;;8.40;4.67;;;20.90;56.50;;;;;;5070750;28;46413;-83
2023/07/16 03:25:15;;;;;;;8.70;5.63;;;21.00;55.80;;;;;;5082068;28;46445;-83
2023/07/16 03:27:40;;;;;;;10.00;5.40;;;21.00;55.50;;;;;;5081016;28;46747;-83
2023/07/16 03:30:07;;;;;;;14.80;6.60;;;21.00;55.40;;;;;;5081923;28;46917;-83
2023/07/16 03:32:32;;;;;;;8.13;5.50;;;21.00;55.30;;;;;;5079804;28;46021;-81
2023/07/16 03:34:58;;;;;;;11.80;6.00;;;21.10;55.50;;;;;;5082089;28;46558;-85
2023/07/16 03:37:23;;;;;;;10.77;6.40;;;21.10;55.60;;;;;;5063136;28;46729;-83
2023/07/16 03:39:49;;;;;;;11.87;6.67;;;21.10;55.60;;;;;;5081631;28;45911;-81
2023/07/16 03:42:14;;;;;;;13.60;6.30;;;21.10;55.80;;;;;;5081589;28;46570;-81
2023/07/16 03:44:40;;;;;;;12.13;5.87;;;21.10;55.80;;;;;;5062141;28;48138;-82
2023/07/16 03:47:05;;;;;;;10.60;5.60;;;21.10;56.00;;;;;;5081185;28;46346;-82
2023/07/16 03:49:31;;;;;;;8.87;5.63;;;21.10;56.10;;;;;;5081133;28;46464;-83
2023/07/16 03:51:57;;;;;;;9.90;6.00;;;21.10;56.30;;;;;;5081519;28;46751;-83
2023/07/16 03:54:22;;;;;;;11.20;5.93;;;21.10;56.40;;;;;;5081261;28;46374;-83
2023/07/16 03:56:48;;;;;;;9.63;5.80;;;21.10;56.20;;;;;;5080614;28;46446;-83
2023/07/16 03:59:13;;;;;;;9.43;4.90;;;21.10;56.20;;;;;;5081437;28;46486;-84
2023/07/16 04:01:39;;;;;;;5.43;3.63;;;21.10;56.30;;;;;;5080240;28;46428;-85
2023/07/16 04:04:04;;;;;;;7.40;3.40;;;21.00;56.40;;;;;;5081739;28;46656;-81
2023/07/16 04:06:33;;;;;;;8.87;3.80;;;20.90;56.60;;;;;;5062032;28;46432;-81
2023/07/16 04:08:59;;;;;;;13.53;3.90;;;20.90;56.80;;;;;;5079653;28;46464;-81
2023/07/16 04:11:24;;;;;;;10.00;4.50;;;20.80;57.10;;;;;;5080333;28;46506;-83
2023/07/16 04:13:50;;;;;;;7.93;4.13;;;20.70;57.30;;;;;;5080112;28;46954;-82
2023/07/16 04:16:15;;;;;;;9.40;3.90;;;20.70;57.50;;;;;;5080983;28;46840;-81
2023/07/16 04:18:41;;;;;;;8.33;4.20;;;20.70;57.90;;;;;;5078054;28;46553;-82
2023/07/16 04:21:06;;;;;;;6.53;3.70;;;20.50;57.90;;;;;;5080191;28;46714;-83
2023/07/16 04:23:32;;;;;;;8.40;3.30;;;20.60;57.70;;;;;;5061147;28;48094;-83
2023/07/16 04:25:58;;;;;;;7.77;3.97;;;20.60;57.60;;;;;;5061061;28;46367;-82
2023/07/16 04:28:23;;;;;;;9.40;3.90;;;20.60;57.10;;;;;;5079298;28;46645;-82
2023/07/16 04:30:49;;;;;;;7.37;3.37;;;20.70;58.50;;;;;;5077479;28;46913;-82
2023/07/16 04:33:15;;;;;;;9.10;3.77;;;20.60;57.00;;;;;;5079415;28;47255;-83
2023/07/16 04:35:40;;;;;;;6.30;3.70;;;20.60;57.10;;;;;;5078991;28;46522;-82
2023/07/16 04:38:07;;;;;;;7.40;4.17;;;20.70;57.10;;;;;;5079201;28;46536;-84
2023/07/16 04:40:33;;;;;;;6.97;3.77;;;20.60;57.00;;;;;;5064257;28;46631;-80
2023/07/16 04:42:58;;;;;;;6.07;3.20;;;20.70;57.30;;;;;;5078772;28;47527;-83
2023/07/16 04:45:24;;;;;;;5.60;3.33;;;20.70;57.40;;;;;;5078196;28;46591;-81
2023/07/16 04:47:50;;;;;;;9.20;3.77;;;20.70;56.90;;;;;;5076992;28;46484;-82
2023/07/16 04:50:15;;;;;;;7.80;3.47;;;20.80;56.80;;;;;;5079354;28;46580;-82
2023/07/16 04:52:41;;;;;;;10.83;3.93;;;20.80;56.60;;;;;;5061365;28;47947;-81
2023/07/16 04:55:07;;;;;;;5.70;3.00;;;20.80;56.10;;;;;;5079094;28;46417;-79
2023/07/16 04:57:33;;;;;;;5.57;3.23;;;20.90;56.00;;;;;;5078470;28;46410;-81
2023/07/16 04:59:59;;;;;;;5.17;3.33;;;21.00;57.00;;;;;;5079319;28;46446;-83
2023/07/16 05:02:24;;;;;;;6.23;3.60;;;20.90;55.50;;;;;;5078163;28;46318;-80
2023/07/16 05:04:50;;;;;;;10.07;4.00;;;20.90;55.50;;;;;;5059806;28;46315;-82
2023/07/16 05:07:15;;;;;;;7.83;3.27;;;21.00;55.60;;;;;;5078081;28;46500;-81
2023/07/16 05:09:42;;;;;;;13.20;4.13;;;21.00;55.40;;;;;;5078488;28;46465;-82
2023/07/16 05:12:08;;;;;;;8.40;3.33;;;21.10;55.20;;;;;;5078582;28;46474;-82
2023/07/16 05:14:44;;;;;;;4.80;2.87;;;21.10;54.90;;;;;;5079586;28;46496;-82
2023/07/16 05:17:09;;;;;;;5.60;2.70;;;21.20;54.50;;;;;;5079565;28;46827;-83
2023/07/16 05:19:35;;;;;;;6.30;3.43;;;21.40;54.10;;;;;;5040658;28;1131284;-79
2023/07/16 05:22:00;;;;;;;6.80;3.00;;;21.40;53.60;;;;;;5078969;28;46815;-81
2023/07/16 05:24:26;;;;;;;6.87;2.70;;;21.50;53.30;;;;;;5061109;28;46759;-80
2023/07/16 05:26:54;;;;;;;5.53;2.70;;;21.60;53.00;;;;;;5079664;28;46746;-81
2023/07/16 05:29:19;;;;;;;4.67;2.40;;;21.70;52.60;;;;;;5078799;28;46561;-83
2023/07/16 05:31:46;;;;;;;8.67;2.50;;;21.80;53.20;;;;;;5078290;28;50037;-82
2023/07/16 05:34:12;;;;;;;10.70;2.80;;;21.90;51.60;;;;;;5079699;28;46926;-81
2023/07/16 05:36:37;;;;;;;5.30;2.33;;;21.90;51.50;;;;;;5079113;28;46959;-81
2023/07/16 05:39:03;;;;;;;6.73;2.73;;;22.00;51.30;;;;;;5078568;28;46657;-80
2023/07/16 05:41:28;;;;;;;6.60;2.70;;;22.00;50.60;;;;;;5058556;28;48231;-81
2023/07/16 05:43:54;;;;;;;9.80;2.23;;;22.20;49.70;;;;;;5078298;28;46657;-81
2023/07/16 05:46:20;;;;;;;4.97;2.30;;;22.30;49.70;;;;;;5078344;28;46486;-82
2023/07/16 05:48:45;;;;;;;8.67;2.60;;;22.30;49.80;;;;;;5079139;28;46862;-80
2023/07/16 05:51:11;;;;;;;6.50;2.17;;;22.20;49.70;;;;;;5079838;28;47191;-81
2023/07/16 05:53:36;;;;;;;4.90;2.70;;;22.20;49.70;;;;;;5079879;28;46363;-80
2023/07/16 05:56:02;;;;;;;4.70;2.40;;;22.20;49.60;;;;;;5078548;28;46823;-81
2023/07/16 05:58:29;;;;;;;6.10;3.00;;;22.10;49.60;;;;;;5080301;28;46493;-80
2023/07/16 06:00:54;;;;;;;5.50;2.53;;;22.00;49.50;;;;;;5077504;28;48581;-81
2023/07/16 06:03:20;;;;;;;6.27;2.60;;;21.90;49.40;;;;;;5077111;28;46548;-81
2023/07/16 06:05:46;;;;;;;4.80;3.10;;;21.90;49.40;;;;;;5078395;28;47379;-81
2023/07/16 06:08:12;;;;;;;7.33;3.07;;;21.80;49.30;;;;;;5079486;28;46446;-79
2023/07/16 06:10:38;;;;;;;5.30;2.67;;;21.70;49.20;;;;;;5077572;28;47063;-79
2023/07/16 06:13:04;;;;;;;5.50;2.77;;;21.70;49.30;;;;;;5078648;28;46737;-80
2023/07/16 06:15:29;;;;;;;7.70;2.50;;;21.60;50.00;;;;;;5080479;28;46474;-82
2023/07/16 06:17:55;;;;;;;8.47;2.33;;;21.70;50.00;;;;;;5082334;28;46886;-80
2023/07/16 06:20:21;;;;;;;8.53;3.40;;;21.60;49.80;;;;;;5078433;28;47350;-79
2023/07/16 06:22:46;;;;;;;5.40;2.50;;;21.60;50.00;;;;;;5079581;28;46649;-78
2023/07/16 06:25:12;;;;;;;5.83;2.40;;;21.50;50.50;;;;;;5079516;28;45962;-78
2023/07/16 06:27:38;;;;;;;4.77;2.47;;;21.40;50.60;;;;;;5080006;28;46857;-80
2023/07/16 06:30:05;;;;;;;4.87;1.93;;;21.30;50.90;;;;;;5061925;28;48339;-80
2023/07/16 06:32:31;;;;;;;5.37;1.70;;;21.30;50.60;;;;;;5078468;28;46411;-78
2023/07/16 06:34:56;;;;;;;3.37;1.80;;;21.20;50.50;;;;;;5080343;28;46751;-80
2023/07/16 06:37:23;;;;;;;3.50;1.80;;;21.10;50.30;;;;;;5080778;28;46498;-80
2023/07/16 06:39:49;;;;;;;3.07;1.60;;;21.20;50.10;;;;;;5078729;28;46407;-81
2023/07/16 06:42:15;;;;;;;10.10;2.17;;;21.20;49.80;;;;;;5079950;28;46726;-79
2023/07/16 06:44:40;;;;;;;4.00;1.80;;;21.30;49.40;;;;;;5078361;28;46595;-79
2023/07/16 06:47:06;;;;;;;4.10;1.90;;;21.30;49.30;;;;;;5060737;28;46360;-77
2023/07/16 06:49:31;;;;;;;3.50;1.83;;;21.20;49.00;;;;;;5078042;28;47010;-80
2023/07/16 06:51:57;;;;;;;5.83;1.80;;;21.20;48.80;;;;;;5078681;28;46452;-80
2023/07/16 06:54:22;;;;;;;7.40;2.10;;;21.30;48.80;;;;;;5076350;28;46665;-79
2023/07/16 06:56:48;;;;;;;4.17;1.93;;;21.20;48.80;;;;;;5060701;28;46439;-80
2023/07/16 06:59:14;;;;;;;5.30;1.90;;;21.20;48.80;;;;;;5076546;28;46704;-79
2023/07/16 07:01:39;;;;;;;4.10;1.63;;;21.30;48.80;;;;;;5078663;28;46378;-78
2023/07/16 07:04:05;;;;;;;4.33;1.93;;;21.40;48.90;;;;;;5078592;28;46570;-82
2023/07/16 07:06:30;;;;;;;4.07;1.60;;;21.70;47.60;;;;;;5078381;28;46335;-81
2023/07/16 07:08:56;;;;;;;6.20;1.70;;;21.90;46.40;;;;;;5060740;28;47933;-81
2023/07/16 07:11:22;;;;;;;6.70;1.70;;;22.00;45.70;;;;;;5065479;28;46421;-82
2023/07/16 07:13:47;;;;;;;4.13;1.70;;;22.10;45.00;;;;;;5079206;28;46466;-81
2023/07/16 07:16:13;;;;;;;3.70;1.87;;;22.10;44.60;;;;;;5078254;28;46671;-81
2023/07/16 07:18:38;;;;;;;4.00;1.60;;;22.10;44.10;;;;;;5078144;28;46838;-81
2023/07/16 07:21:04;;;;;;;6.63;1.40;;;22.10;43.90;;;;;;5078788;28;46478;-80
2023/07/16 07:23:29;;;;;;;4.13;1.77;;;22.10;43.60;;;;;;5078318;28;46635;-81
2023/07/16 07:25:55;;;;;;;3.73;1.73;;;22.20;44.40;;;;;;5080832;27;46483;-82
2023/07/16 07:28:20;;;;;;;7.30;1.70;;;22.10;43.20;;;;;;5062803;28;48005;-80
2023/07/16 07:30:46;;;;;;;7.23;2.00;;;22.10;42.90;;;;;;5079244;28;46245;-82
2023/07/16 07:33:12;;;;;;;5.33;1.73;;;22.10;42.70;;;;;;5081941;28;46335;-81
2023/07/16 07:35:38;;;;;;;4.73;2.13;;;22.10;42.10;;;;;;5079518;28;46588;-80
2023/07/16 07:38:03;;;;;;;3.93;2.13;;;22.20;41.60;;;;;;5081517;28;46638;-82
2023/07/16 07:40:29;;;;;;;6.83;1.70;;;22.30;41.10;;;;;;5081580;28;46473;-82
2023/07/16 07:42:55;;;;;;;9.27;2.10;;;22.40;40.40;;;;;;5081031;28;46653;-82
2023/07/16 07:45:20;;;;;;;3.90;1.87;;;22.70;39.50;;;;;;5079492;28;46468;-83
2023/07/16 07:47:46;;;;;;;4.70;1.93;;;23.10;37.90;;;;;;5081605;28;47371;-83
2023/07/16 07:50:11;;;;;;;5.50;1.97;;;23.60;36.60;;;;;;5079460;27;46699;-82
2023/07/16 07:52:37;;;;;;;4.60;1.53;;;24.00;34.90;;;;;;5081696;28;46424;-83
2023/07/16 07:55:03;;;;;;;3.50;1.70;;;24.30;33.30;;;;;;5080423;28;46488;-83
2023/07/16 07:57:29;;;;;;;3.20;1.60;;;24.60;32.20;;;;;;5080534;28;46471;-81
2023/07/16 07:59:57;;;;;;;5.70;2.20;;;24.80;30.70;;;;;;5078882;28;46518;-83
2023/07/16 08:02:26;;;;;;;5.40;1.87;;;24.80;31.00;;;;;;5061060;28;46622;-85
2023/07/16 08:04:53;;;;;;;3.63;1.63;;;24.80;29.80;;;;;;5081049;28;46477;-84
2023/07/16 08:07:19;;;;;;;7.10;1.90;;;24.80;29.30;;;;;;5082004;28;46685;-86
2023/07/16 08:09:45;;;;;;;4.73;1.67;;;24.80;29.00;;;;;;5061862;28;46533;-83
2023/07/16 08:12:11;;;;;;;4.50;1.93;;;24.70;28.60;;;;;;5062159;28;45828;-84
2023/07/16 08:14:37;;;;;;;4.33;2.00;;;24.80;28.30;;;;;;5080745;28;45893;-85
2023/07/16 08:17:03;;;;;;;5.43;2.80;;;24.80;28.10;;;;;;5072439;28;46570;-79
2023/07/16 08:19:28;;;;;;;5.33;2.30;;;24.90;27.90;;;;;;5077268;28;46599;-83
2023/07/16 08:21:54;;;;;;;4.43;1.67;;;25.10;27.10;;;;;;5079179;28;46409;-85
2023/07/16 08:24:19;;;;;;;3.70;1.90;;;25.20;26.40;;;;;;5081358;28;46443;-84
2023/07/16 08:26:45;;;;;;;3.60;1.77;;;25.30;26.10;;;;;;5077169;28;46904;-83
2023/07/16 08:29:11;;;;;;;4.27;1.90;;;25.40;26.20;;;;;;5078793;28;46754;-84
2023/07/16 08:31:36;;;;;;;4.63;1.90;;;25.50;25.80;;;;;;5079820;28;46501;-83
2023/07/16 08:34:02;;;;;;;2.97;1.70;;;25.20;26.10;;;;;;5059767;28;46590;-85
2023/07/16 08:36:27;;;;;;;5.53;2.30;;;25.10;26.00;;;;;;5077911;28;46482;-84
2023/07/16 08:38:53;;;;;;;3.30;1.70;;;25.50;26.20;;;;;;5079486;28;46414;-87
2023/07/16 08:41:19;;;;;;;3.80;2.00;;;25.80;25.50;;;;;;5080607;28;46438;-85
2023/07/16 08:43:49;;;;;;;6.03;1.87;;;26.00;24.80;;;;;;5062104;28;45936;-83
2023/07/16 08:46:15;;;;;;;4.03;1.87;;;26.20;24.00;;;;;;5078838;28;47346;-85
2023/07/16 08:48:41;;;;;;;5.40;1.93;;;26.10;23.90;;;;;;5075837;27;47091;-81
2023/07/16 08:51:09;;;;;;;5.43;1.90;;;25.60;23.90;;;;;;5078876;28;46485;-83
2023/07/16 08:53:35;;;;;;;4.60;1.90;;;25.70;23.90;;;;;;5079020;28;46479;-82
2023/07/16 08:56:02;;;;;;;3.50;2.00;;;26.20;23.00;;;;;;5078270;28;46508;-84
2023/07/16 08:58:30;;;;;;;3.33;1.67;;;26.60;21.70;;;;;;5079578;28;47039;-85
2023/07/16 09:00:56;;;;;;;4.10;1.80;;;26.70;20.80;;;;;;5077614;28;46610;-84
2023/07/16 09:03:21;;;;;;;3.43;1.63;;;27.00;20.20;;;;;;5079042;28;46420;-81
2023/07/16 09:05:47;;;;;;;4.40;1.50;;;27.20;19.10;;;;;;5059977;28;49117;-82
2023/07/16 09:08:14;;;;;;;5.70;2.00;;;27.30;18.70;;;;;;5075645;28;46694;-87
2023/07/16 09:10:43;;;;;;;4.00;1.70;;;27.30;18.50;;;;;;5060389;28;46572;-83
2023/07/16 09:13:09;;;;;;;4.30;1.80;;;27.50;17.80;;;;;;5077133;27;47763;-82
2023/07/16 09:15:35;;;;;;;3.43;1.70;;;27.90;16.40;;;;;;5077244;27;48353;-83
2023/07/16 09:18:02;;;;;;;4.43;2.03;;;27.70;16.30;;;;;;5076904;28;46329;-85
2023/07/16 09:20:28;;;;;;;4.43;1.53;;;27.50;16.80;;;;;;5075751;27;46914;-84
2023/07/16 09:22:57;;;;;;;3.90;2.10;;;27.30;17.20;;;;;;5075822;27;46661;-82
2023/07/16 09:25:30;;;;;;;4.20;1.77;;;27.30;17.20;;;;;;5078556;28;46939;-83
2023/07/16 09:28:01;;;;;;;4.17;2.10;;;27.30;16.40;;;;;;5077837;27;46449;-83
2023/07/16 09:30:34;;;;;;;3.43;1.77;;;27.20;16.50;;;;;;5076374;28;46714;-82
2023/07/16 09:33:17;;;;;;;4.00;2.00;;;27.30;16.10;;;;;;5077641;28;45854;-82
2023/07/16 09:35:43;;;;;;;3.37;1.77;;;27.10;15.80;;;;;;5076196;28;46554;-81
2023/07/16 09:38:09;;;;;;;4.03;1.60;;;26.90;15.90;;;;;;5078536;28;46415;-81
2023/07/16 09:40:40;;;;;;;4.80;1.50;;;26.80;15.80;;;;;;5078309;28;45859;-82
2023/07/16 09:43:06;;;;;;;9.13;2.20;;;26.80;15.90;;;;;;5076787;28;46485;-85
2023/07/16 09:45:31;;;;;;;15.63;2.50;;;26.80;15.90;;;;;;5074526;28;48801;-87
2023/07/16 09:47:57;;;;;;;4.03;2.00;;;26.90;15.90;;;;;;5076277;28;47135;-84
2023/07/16 09:50:25;;;;;;;3.80;2.00;;;27.00;16.00;;;;;;5078182;27;46397;-85
2023/07/16 09:52:51;;;;;;;3.80;1.80;;;27.40;15.20;;;;;;5060372;28;46393;-84
2023/07/16 09:55:21;;;;;;;4.10;1.90;;;27.80;14.40;;;;;;5077823;28;46499;-87
2023/07/16 09:57:47;;;;;;;4.10;1.90;;;28.10;13.60;;;;;;5058969;28;46356;-84
2023/07/16 10:00:14;;;;;;;3.77;1.83;;;27.90;13.70;;;;;;5078315;28;46674;-83
2023/07/16 10:02:41;;;;;;;7.17;2.20;;;28.10;13.20;;;;;;5076619;28;46487;-85
2023/07/16 10:05:19;;;;;;;3.33;1.67;;;28.10;13.40;;;;;;5076731;27;48308;-86
2023/07/16 10:07:53;;;;;;;3.30;1.70;;;27.50;13.00;;;;;;5077962;27;46463;-84
2023/07/16 10:10:19;;;;;;;5.10;2.00;;;27.00;13.40;;;;;;5078022;28;47012;-84
2023/07/16 10:13:02;;;;;;;3.93;1.80;;;27.20;13.80;;;;;;5076604;28;46472;-83
2023/07/16 10:15:29;;;;;;;6.17;1.80;;;27.60;13.60;;;;;;5077942;28;47185;-84
2023/07/16 10:17:55;;;;;;;3.40;1.63;;;27.80;13.10;;;;;;5076319;27;46550;-86
2023/07/16 10:20:42;;;;;;;4.13;1.80;;;28.00;12.70;;;;;;5079389;28;46654;-82
2023/07/16 10:23:16;;;;;;;4.97;2.10;;;28.20;12.00;;;;;;5074126;27;46548;-81
2023/07/16 10:25:59;;;;;;;4.03;2.13;;;28.50;12.30;;;;;;5076513;28;46606;-83
2023/07/16 10:28:24;;;;;;;3.63;1.60;;;28.60;11.70;;;;;;5058241;28;46450;-84
2023/07/16 10:30:50;;;;;;;4.20;2.20;;;28.50;11.90;;;;;;5059339;28;46511;-85
2023/07/16 10:33:16;;;;;;;3.27;1.63;;;28.30;12.30;;;;;;5059599;28;45964;-83
2023/07/16 10:35:42;;;;;;;4.20;1.97;;;28.20;12.30;;;;;;5076633;28;47311;-82
2023/07/16 10:38:08;;;;;;;3.60;1.57;;;27.80;12.20;;;;;;5078372;28;46609;-84
2023/07/16 10:40:43;;;;;;;3.70;2.20;;;28.10;11.90;;;;;;5078770;28;46308;-83
2023/07/16 10:43:09;;;;;;;4.10;1.73;;;28.50;11.30;;;;;;5078024;28;46502;-84
2023/07/16 10:45:35;;;;;;;3.73;2.07;;;28.90;10.60;;;;;;5077418;28;49245;-83
2023/07/16 10:48:00;;;;;;;4.17;1.97;;;28.80;10.40;;;;;;5078132;28;46556;-82
2023/07/16 10:50:26;;;;;;;5.00;1.80;;;28.60;10.40;;;;;;5079194;28;46438;-84
2023/07/16 10:52:53;;;;;;;4.57;1.77;;;28.50;10.90;;;;;;5075360;28;46418;-85
2023/07/16 10:55:19;;;;;;;4.00;1.80;;;28.40;11.30;;;;;;5060692;28;49259;-84
2023/07/16 10:57:48;;;;;;;5.00;1.50;;;28.50;10.90;;;;;;5079217;28;46562;-82
2023/07/16 11:00:16;;;;;;;6.30;2.13;;;28.70;10.30;;;;;;5081165;27;46449;-83
2023/07/16 11:02:43;;;;;;;8.13;2.10;;;29.00;9.70;;;;;;5082365;28;46568;-84
2023/07/16 11:05:16;;;;;;;4.17;1.90;;;29.10;8.90;;;;;;5081987;28;47465;-82
2023/07/16 11:07:49;;;;;;;5.47;2.07;;;29.00;9.50;;;;;;5081516;28;46617;-83
2023/07/16 11:10:18;;;;;;;5.00;1.60;;;29.00;9.20;;;;;;5079685;28;46643;-83
2023/07/16 11:12:44;;;;;;;5.83;2.03;;;28.60;9.50;;;;;;5056783;28;46608;-81
2023/07/16 11:15:11;;;;;;;6.13;2.23;;;28.20;10.20;;;;;;5079334;28;47514;-79
2023/07/16 11:17:39;;;;;;;3.20;1.60;;;28.10;10.40;;;;;;5078786;27;46480;-79
2023/07/16 11:20:08;;;;;;;4.20;2.00;;;27.80;10.30;;;;;;5078107;27;46658;-83
2023/07/16 11:22:37;;;;;;;8.07;2.13;;;27.40;10.60;;;;;;5080187;28;46029;-83
2023/07/16 11:25:03;;;;;;;3.90;2.00;;;27.10;10.90;;;;;;5079914;28;46336;-82
2023/07/16 11:27:32;;;;;;;10.67;2.40;;;27.20;11.20;;;;;;5081472;28;46573;-82
2023/07/16 11:30:00;;;;;;;5.37;2.30;;;27.30;11.30;;;;;;5080228;28;47081;-82
2023/07/16 11:32:34;;;;;;;4.77;1.87;;;27.20;11.70;;;;;;5081194;28;46942;-83
2023/07/16 11:35:01;;;;;;;3.80;1.90;;;27.00;12.20;;;;;;5062138;28;48223;-84
2023/07/16 11:37:32;;;;;;;3.80;1.93;;;26.90;12.30;;;;;;5063192;28;46376;-86
2023/07/16 11:40:05;;;;;;;3.50;1.77;;;26.70;12.70;;;;;;5080583;27;46795;-84
2023/07/16 11:42:32;;;;;;;5.30;2.47;;;26.90;12.40;;;;;;5082440;28;46474;-82
2023/07/16 11:44:59;;;;;;;3.70;1.80;;;26.90;12.20;;;;;;5078467;28;47092;-85
2023/07/16 11:47:25;;;;;;;5.10;2.10;;;26.60;12.40;;;;;;5082817;27;46545;-82
2023/07/16 11:49:51;;;;;;;3.60;2.10;;;26.60;12.80;;;;;;5078869;28;46489;-83
2023/07/16 11:52:25;;;;;;;4.40;1.97;;;26.50;13.40;;;;;;5080727;28;46444;-84
2023/07/16 11:54:56;;;;;;;3.77;2.00;;;26.30;13.60;;;;;;5060728;28;49343;-84
2023/07/16 11:57:23;;;;;;;5.13;2.33;;;25.80;14.80;;;;;;5080873;28;46616;-83
2023/07/16 11:59:48;;;;;;;4.17;1.87;;;25.70;15.20;;;;;;5079060;27;46819;-83
2023/07/16 12:02:14;;;;;;;3.83;2.20;;;26.00;15.40;;;;;;5081084;28;46624;-84
2023/07/16 12:04:40;;;;;;;4.10;2.17;;;26.20;15.50;;;;;;5079837;28;46427;-83
2023/07/16 12:07:06;;;;;;;4.70;2.50;;;26.30;15.00;;;;;;5079253;28;46363;-83
2023/07/16 12:09:32;;;;;;;3.80;2.07;;;26.20;14.90;;;;;;5061979;28;46556;-83
2023/07/16 12:11:57;;;;;;;5.00;2.33;;;26.10;15.40;;;;;;5079537;27;46785;-84
2023/07/16 12:14:23;;;;;;;5.27;2.50;;;26.30;15.60;;;;;;5078577;28;46996;-83
2023/07/16 12:16:49;;;;;;;7.20;2.40;;;26.70;15.10;;;;;;5067306;28;46363;-83
2023/07/16 12:19:14;;;;;;;3.97;2.10;;;27.00;14.10;;;;;;5079450;28;46677;-84
2023/07/16 12:21:40;;;;;;;4.70;2.10;;;27.20;13.70;;;;;;5070048;28;46391;-86
2023/07/16 12:24:05;;;;;;;6.53;2.70;;;27.20;13.40;;;;;;5070597;28;48165;-84
2023/07/16 12:26:31;;;;;;;6.83;2.37;;;27.60;13.30;;;;;;5093726;27;46899;-84
2023/07/16 12:28:56;;;;;;;5.60;2.30;;;27.90;12.80;;;;;;5061877;28;47709;-84
2023/07/16 12:31:22;;;;;;;5.07;2.30;;;28.00;12.00;;;;;;5082274;28;46465;-80
2023/07/16 12:33:48;;;;;;;4.33;2.80;;;28.30;11.80;;;;;;5079022;27;47788;-80
2023/07/16 12:36:14;;;;;;;4.23;2.13;;;28.40;11.60;;;;;;5079379;27;46481;-86
2023/07/16 12:38:40;;;;;;;8.80;2.33;;;28.60;12.20;;;;;;5063211;28;47054;-85
2023/07/16 12:41:07;;;;;;;4.80;2.30;;;28.60;12.30;;;;;;5063313;28;46561;-84
2023/07/16 12:43:34;;;;;;;3.83;2.10;;;28.60;11.90;;;;;;5085441;27;46829;-83